sensor_id;sensor_type;location;lat;lon;timestamp;P1;durP1;ratioP1;P2;durP2;ratioP2
21639;SDS011;10981;45.462;10.974;2023-02-28T00:00:01;12.60;;;7.18;;
21639;SDS011;10981;45.462;10.974;2023-02-28T00:02:40;10.30;;;6.53;;
21639;SDS011;10981;45.462;10.974;2023-02-28T00:05:09;8.60;;;6.28;;
21639;SDS011;10981;45.462;10.974;2023-02-28T00:07:37;9.60;;;6.10;;
21639;SDS011;10981;45.462;10.974;2023-02-28T00:10:06;11.65;;;6.50;;
21639;SDS011;10981;45.462;10.974;2023-02-28T00:12:35;9.20;;;6.00;;
21639;SDS011;10981;45.462;10.974;2023-02-28T00:15:06;7.22;;;6.28;;
21639;SDS011;10981;45.462;10.974;2023-02-28T00:17:35;8.07;;;5.65;;
21639;SDS011;10981;45.462;10.974;2023-02-28T00:20:03;10.35;;;6.55;;
21639;SDS011;10981;45.462;10.974;2023-02-28T00:22:33;10.80;;;6.72;;
21639;SDS011;10981;45.462;10.974;2023-02-28T00:25:01;9.10;;;5.60;;
21639;SDS011;10981;45.462;10.974;2023-02-28T00:27:29;8.45;;;6.00;;
21639;SDS011;10981;45.462;10.974;2023-02-28T00:29:57;10.32;;;6.63;;
21639;SDS011;10981;45.462;10.974;2023-02-28T00:32:25;10.65;;;6.65;;
21639;SDS011;10981;45.462;10.974;2023-02-28T00:34:53;10.27;;;7.20;;
21639;SDS011;10981;45.462;10.974;2023-02-28T00:37:20;10.70;;;6.43;;
21639;SDS011;10981;45.462;10.974;2023-02-28T00:39:48;10.90;;;6.07;;
21639;SDS011;10981;45.462;10.974;2023-02-28T00:42:16;12.07;;;6.28;;
21639;SDS011;10981;45.462;10.974;2023-02-28T00:44:47;11.07;;;6.05;;
21639;SDS011;10981;45.462;10.974;2023-02-28T00:47:15;9.48;;;5.88;;
21639;SDS011;10981;45.462;10.974;2023-02-28T00:49:43;7.97;;;5.68;;
21639;SDS011;10981;45.462;10.974;2023-02-28T00:52:11;11.02;;;6.20;;
21639;SDS011;10981;45.462;10.974;2023-02-28T00:54:38;8.23;;;6.50;;
21639;SDS011;10981;45.462;10.974;2023-02-28T00:57:07;11.15;;;6.28;;
21639;SDS011;10981;45.462;10.974;2023-02-28T00:59:35;13.00;;;6.28;;
21639;SDS011;10981;45.462;10.974;2023-02-28T01:02:02;6.95;;;5.78;;
21639;SDS011;10981;45.462;10.974;2023-02-28T01:04:30;9.10;;;6.30;;
21639;SDS011;10981;45.462;10.974;2023-02-28T01:07:00;8.85;;;5.60;;
21639;SDS011;10981;45.462;10.974;2023-02-28T01:09:28;9.38;;;6.03;;
21639;SDS011;10981;45.462;10.974;2023-02-28T01:11:57;9.50;;;5.43;;
21639;SDS011;10981;45.462;10.974;2023-02-28T01:14:25;7.45;;;5.65;;
21639;SDS011;10981;45.462;10.974;2023-02-28T01:16:53;10.43;;;5.68;;
21639;SDS011;10981;45.462;10.974;2023-02-28T01:19:21;10.10;;;5.95;;
21639;SDS011;10981;45.462;10.974;2023-02-28T01:21:49;10.32;;;5.93;;
21639;SDS011;10981;45.462;10.974;2023-02-28T01:24:17;9.65;;;5.88;;
21639;SDS011;10981;45.462;10.974;2023-02-28T01:26:45;8.48;;;5.88;;
21639;SDS011;10981;45.462;10.974;2023-02-28T01:29:12;9.82;;;5.93;;
21639;SDS011;10981;45.462;10.974;2023-02-28T01:31:40;9.43;;;5.65;;
21639;SDS011;10981;45.462;10.974;2023-02-28T01:34:08;10.07;;;6.38;;
21639;SDS011;10981;45.462;10.974;2023-02-28T01:36:36;10.30;;;6.25;;
21639;SDS011;10981;45.462;10.974;2023-02-28T01:39:04;9.02;;;6.00;;
21639;SDS011;10981;45.462;10.974;2023-02-28T01:41:33;8.23;;;5.70;;
21639;SDS011;10981;45.462;10.974;2023-02-28T01:46:33;10.77;;;6.13;;
21639;SDS011;10981;45.462;10.974;2023-02-28T01:49:04;7.82;;;6.07;;
21639;SDS011;10981;45.462;10.974;2023-02-28T01:51:35;10.52;;;5.65;;
21639;SDS011;10981;45.462;10.974;2023-02-28T01:54:09;9.18;;;5.95;;
21639;SDS011;10981;45.462;10.974;2023-02-28T01:56:44;8.50;;;5.60;;
21639;SDS011;10981;45.462;10.974;2023-02-28T01:59:14;7.38;;;6.63;;
21639;SDS011;10981;45.462;10.974;2023-02-28T02:01:44;9.45;;;6.10;;
21639;SDS011;10981;45.462;10.974;2023-02-28T02:04:12;7.70;;;5.68;;
21639;SDS011;10981;45.462;10.974;2023-02-28T02:06:42;10.00;;;6.18;;
21639;SDS011;10981;45.462;10.974;2023-02-28T02:09:11;8.07;;;5.97;;
21639;SDS011;10981;45.462;10.974;2023-02-28T02:11:42;8.52;;;5.32;;
21639;SDS011;10981;45.462;10.974;2023-02-28T02:30:05;8.63;;;6.25;;
21639;SDS011;10981;45.462;10.974;2023-02-28T02:35:27;11.68;;;6.35;;
21639;SDS011;10981;45.462;10.974;2023-02-28T02:43:25;10.05;;;6.50;;
21639;SDS011;10981;45.462;10.974;2023-02-28T02:45:58;8.65;;;5.90;;
21639;SDS011;10981;45.462;10.974;2023-02-28T02:48:29;9.13;;;6.13;;
21639;SDS011;10981;45.462;10.974;2023-02-28T02:50:59;9.80;;;5.80;;
21639;SDS011;10981;45.462;10.974;2023-02-28T02:53:29;8.65;;;6.22;;
21639;SDS011;10981;45.462;10.974;2023-02-28T02:56:00;6.97;;;5.72;;
21639;SDS011;10981;45.462;10.974;2023-02-28T02:58:31;7.97;;;6.25;;
21639;SDS011;10981;45.462;10.974;2023-02-28T03:01:01;6.97;;;5.75;;
21639;SDS011;10981;45.462;10.974;2023-02-28T03:03:30;9.35;;;6.55;;
21639;SDS011;10981;45.462;10.974;2023-02-28T03:06:00;7.82;;;5.82;;
21639;SDS011;10981;45.462;10.974;2023-02-28T03:08:29;9.85;;;5.93;;
21639;SDS011;10981;45.462;10.974;2023-02-28T03:10:58;9.55;;;5.90;;
21639;SDS011;10981;45.462;10.974;2023-02-28T03:21:27;9.90;;;6.13;;
21639;SDS011;10981;45.462;10.974;2023-02-28T03:24:09;8.48;;;5.47;;
21639;SDS011;10981;45.462;10.974;2023-02-28T03:26:39;8.65;;;6.15;;
21639;SDS011;10981;45.462;10.974;2023-02-28T03:29:17;8.05;;;5.95;;
21639;SDS011;10981;45.462;10.974;2023-02-28T03:32:33;13.43;;;6.22;;
21639;SDS011;10981;45.462;10.974;2023-02-28T03:34:42;7.82;;;5.93;;
21639;SDS011;10981;45.462;10.974;2023-02-28T03:37:11;10.32;;;6.30;;
21639;SDS011;10981;45.462;10.974;2023-02-28T03:39:49;12.77;;;6.82;;
21639;SDS011;10981;45.462;10.974;2023-02-28T03:42:22;8.82;;;5.80;;
21639;SDS011;10981;45.462;10.974;2023-02-28T03:47:23;10.40;;;6.00;;
21639;SDS011;10981;45.462;10.974;2023-02-28T03:52:19;10.70;;;6.13;;
21639;SDS011;10981;45.462;10.974;2023-02-28T03:54:50;9.95;;;6.22;;
21639;SDS011;10981;45.462;10.974;2023-02-28T03:57:26;8.50;;;5.95;;
21639;SDS011;10981;45.462;10.974;2023-02-28T04:00:06;10.48;;;6.20;;
21639;SDS011;10981;45.462;10.974;2023-02-28T04:02:38;9.27;;;6.22;;
21639;SDS011;10981;45.462;10.974;2023-02-28T04:05:07;12.65;;;6.45;;
21639;SDS011;10981;45.462;10.974;2023-02-28T04:07:35;9.95;;;6.22;;
21639;SDS011;10981;45.462;10.974;2023-02-28T04:10:03;6.55;;;5.47;;
21639;SDS011;10981;45.462;10.974;2023-02-28T04:12:31;6.95;;;5.43;;
21639;SDS011;10981;45.462;10.974;2023-02-28T04:14:59;10.27;;;6.18;;
21639;SDS011;10981;45.462;10.974;2023-02-28T04:17:27;8.98;;;5.97;;
21639;SDS011;10981;45.462;10.974;2023-02-28T04:19:55;8.55;;;6.18;;
21639;SDS011;10981;45.462;10.974;2023-02-28T04:22:23;8.73;;;5.82;;
21639;SDS011;10981;45.462;10.974;2023-02-28T04:24:54;9.48;;;6.70;;
21639;SDS011;10981;45.462;10.974;2023-02-28T04:27:22;9.30;;;6.68;;
21639;SDS011;10981;45.462;10.974;2023-02-28T04:29:50;10.77;;;6.32;;
21639;SDS011;10981;45.462;10.974;2023-02-28T04:32:18;8.32;;;5.35;;
21639;SDS011;10981;45.462;10.974;2023-02-28T04:34:46;10.48;;;6.22;;
21639;SDS011;10981;45.462;10.974;2023-02-28T04:37:13;9.40;;;6.20;;
21639;SDS011;10981;45.462;10.974;2023-02-28T04:39:41;7.00;;;5.32;;
21639;SDS011;10981;45.462;10.974;2023-02-28T04:42:10;11.25;;;6.47;;
21639;SDS011;10981;45.462;10.974;2023-02-28T04:44:38;10.15;;;6.18;;
21639;SDS011;10981;45.462;10.974;2023-02-28T04:47:05;10.23;;;6.43;;
21639;SDS011;10981;45.462;10.974;2023-02-28T04:49:33;6.95;;;5.32;;
21639;SDS011;10981;45.462;10.974;2023-02-28T04:52:01;9.20;;;6.03;;
21639;SDS011;10981;45.462;10.974;2023-02-28T04:54:29;9.60;;;6.20;;
21639;SDS011;10981;45.462;10.974;2023-02-28T04:56:57;9.55;;;5.95;;
21639;SDS011;10981;45.462;10.974;2023-02-28T04:59:25;8.57;;;5.97;;
21639;SDS011;10981;45.462;10.974;2023-02-28T05:01:53;8.02;;;6.10;;
21639;SDS011;10981;45.462;10.974;2023-02-28T05:04:20;10.25;;;6.35;;
21639;SDS011;10981;45.462;10.974;2023-02-28T05:06:48;9.13;;;5.93;;
21639;SDS011;10981;45.462;10.974;2023-02-28T05:09:16;9.82;;;6.43;;
21639;SDS011;10981;45.462;10.974;2023-02-28T05:11:44;9.63;;;5.90;;
21639;SDS011;10981;45.462;10.974;2023-02-28T05:14:12;11.00;;;6.97;;
21639;SDS011;10981;45.462;10.974;2023-02-28T05:16:41;10.13;;;6.40;;
21639;SDS011;10981;45.462;10.974;2023-02-28T05:19:09;10.30;;;6.47;;
21639;SDS011;10981;45.462;10.974;2023-02-28T05:21:40;8.60;;;5.72;;
21639;SDS011;10981;45.462;10.974;2023-02-28T05:24:10;8.50;;;6.05;;
21639;SDS011;10981;45.462;10.974;2023-02-28T05:26:39;11.35;;;6.55;;
21639;SDS011;10981;45.462;10.974;2023-02-28T05:29:07;10.18;;;5.78;;
21639;SDS011;10981;45.462;10.974;2023-02-28T05:31:35;10.10;;;6.25;;
21639;SDS011;10981;45.462;10.974;2023-02-28T05:34:04;8.15;;;5.80;;
21639;SDS011;10981;45.462;10.974;2023-02-28T05:36:32;7.75;;;5.78;;
21639;SDS011;10981;45.462;10.974;2023-02-28T05:39:00;10.30;;;6.55;;
21639;SDS011;10981;45.462;10.974;2023-02-28T05:41:29;8.30;;;6.53;;
21639;SDS011;10981;45.462;10.974;2023-02-28T05:43:57;9.27;;;6.00;;
21639;SDS011;10981;45.462;10.974;2023-02-28T05:46:26;10.27;;;6.30;;
21639;SDS011;10981;45.462;10.974;2023-02-28T05:48:54;9.02;;;6.28;;
21639;SDS011;10981;45.462;10.974;2023-02-28T05:51:23;9.52;;;6.18;;
21639;SDS011;10981;45.462;10.974;2023-02-28T05:53:51;8.68;;;6.07;;
21639;SDS011;10981;45.462;10.974;2023-02-28T05:56:19;8.30;;;5.72;;
21639;SDS011;10981;45.462;10.974;2023-02-28T05:58:46;10.18;;;6.88;;
21639;SDS011;10981;45.462;10.974;2023-02-28T06:01:22;9.27;;;5.97;;
21639;SDS011;10981;45.462;10.974;2023-02-28T06:03:50;9.55;;;6.10;;
21639;SDS011;10981;45.462;10.974;2023-02-28T06:06:18;8.68;;;5.13;;
21639;SDS011;10981;45.462;10.974;2023-02-28T06:08:46;7.57;;;5.75;;
21639;SDS011;10981;45.462;10.974;2023-02-28T06:11:14;9.50;;;6.22;;
21639;SDS011;10981;45.462;10.974;2023-02-28T06:13:42;9.32;;;6.10;;
21639;SDS011;10981;45.462;10.974;2023-02-28T06:16:10;11.43;;;6.25;;
21639;SDS011;10981;45.462;10.974;2023-02-28T06:18:38;10.43;;;6.05;;
21639;SDS011;10981;45.462;10.974;2023-02-28T06:21:06;10.68;;;6.63;;
21639;SDS011;10981;45.462;10.974;2023-02-28T06:23:35;10.88;;;6.22;;
21639;SDS011;10981;45.462;10.974;2023-02-28T06:26:03;10.20;;;6.13;;
21639;SDS011;10981;45.462;10.974;2023-02-28T06:28:31;9.57;;;6.15;;
21639;SDS011;10981;45.462;10.974;2023-02-28T06:30:59;11.27;;;6.30;;
21639;SDS011;10981;45.462;10.974;2023-02-28T06:33:27;9.95;;;6.97;;
21639;SDS011;10981;45.462;10.974;2023-02-28T06:35:55;10.38;;;6.72;;
21639;SDS011;10981;45.462;10.974;2023-02-28T06:38:23;10.00;;;7.20;;
21639;SDS011;10981;45.462;10.974;2023-02-28T06:40:57;10.57;;;6.30;;
21639;SDS011;10981;45.462;10.974;2023-02-28T06:43:27;13.57;;;6.47;;
21639;SDS011;10981;45.462;10.974;2023-02-28T06:45:59;11.40;;;6.35;;
21639;SDS011;10981;45.462;10.974;2023-02-28T06:48:28;15.52;;;7.15;;
21639;SDS011;10981;45.462;10.974;2023-02-28T06:51:05;10.90;;;6.70;;
21639;SDS011;10981;45.462;10.974;2023-02-28T06:53:33;12.82;;;7.07;;
21639;SDS011;10981;45.462;10.974;2023-02-28T06:56:09;11.20;;;7.00;;
21639;SDS011;10981;45.462;10.974;2023-02-28T06:58:37;13.60;;;7.03;;
21639;SDS011;10981;45.462;10.974;2023-02-28T07:01:06;11.60;;;6.50;;
21639;SDS011;10981;45.462;10.974;2023-02-28T07:03:34;10.52;;;6.90;;
21639;SDS011;10981;45.462;10.974;2023-02-28T07:06:02;10.23;;;6.80;;
21639;SDS011;10981;45.462;10.974;2023-02-28T07:08:30;9.85;;;6.93;;
21639;SDS011;10981;45.462;10.974;2023-02-28T07:10:59;10.40;;;6.45;;
21639;SDS011;10981;45.462;10.974;2023-02-28T07:13:26;12.48;;;7.03;;
21639;SDS011;10981;45.462;10.974;2023-02-28T07:15:59;10.95;;;6.75;;
21639;SDS011;10981;45.462;10.974;2023-02-28T07:18:27;14.30;;;7.23;;
21639;SDS011;10981;45.462;10.974;2023-02-28T07:20:55;9.63;;;6.93;;
21639;SDS011;10981;45.462;10.974;2023-02-28T07:23:23;12.55;;;6.32;;
21639;SDS011;10981;45.462;10.974;2023-02-28T07:25:51;12.70;;;6.55;;
21639;SDS011;10981;45.462;10.974;2023-02-28T07:28:19;13.95;;;7.60;;
21639;SDS011;10981;45.462;10.974;2023-02-28T07:30:47;13.27;;;6.53;;
21639;SDS011;10981;45.462;10.974;2023-02-28T07:33:15;10.05;;;6.53;;
21639;SDS011;10981;45.462;10.974;2023-02-28T07:35:43;11.52;;;7.05;;
21639;SDS011;10981;45.462;10.974;2023-02-28T07:38:11;11.25;;;7.25;;
21639;SDS011;10981;45.462;10.974;2023-02-28T07:40:40;11.00;;;6.80;;
21639;SDS011;10981;45.462;10.974;2023-02-28T07:43:08;9.77;;;7.28;;
21639;SDS011;10981;45.462;10.974;2023-02-28T07:45:36;10.00;;;6.95;;
21639;SDS011;10981;45.462;10.974;2023-02-28T07:48:04;11.02;;;6.57;;
21639;SDS011;10981;45.462;10.974;2023-02-28T07:50:32;10.40;;;6.53;;
21639;SDS011;10981;45.462;10.974;2023-02-28T07:53:01;12.20;;;6.60;;
21639;SDS011;10981;45.462;10.974;2023-02-28T07:55:29;17.63;;;7.22;;
21639;SDS011;10981;45.462;10.974;2023-02-28T07:57:57;10.40;;;6.20;;
21639;SDS011;10981;45.462;10.974;2023-02-28T08:00:25;10.75;;;6.38;;
21639;SDS011;10981;45.462;10.974;2023-02-28T08:02:53;16.02;;;6.20;;
21639;SDS011;10981;45.462;10.974;2023-02-28T08:05:21;10.10;;;6.40;;
21639;SDS011;10981;45.462;10.974;2023-02-28T08:07:49;10.45;;;6.25;;
21639;SDS011;10981;45.462;10.974;2023-02-28T08:10:17;9.05;;;6.03;;
21639;SDS011;10981;45.462;10.974;2023-02-28T08:12:45;11.18;;;5.78;;
21639;SDS011;10981;45.462;10.974;2023-02-28T08:15:12;9.52;;;6.50;;
21639;SDS011;10981;45.462;10.974;2023-02-28T08:17:40;10.15;;;6.45;;
21639;SDS011;10981;45.462;10.974;2023-02-28T08:20:08;9.77;;;5.75;;
21639;SDS011;10981;45.462;10.974;2023-02-28T08:22:37;9.25;;;6.72;;
21639;SDS011;10981;45.462;10.974;2023-02-28T08:25:05;9.98;;;6.55;;
21639;SDS011;10981;45.462;10.974;2023-02-28T08:27:34;10.85;;;6.70;;
21639;SDS011;10981;45.462;10.974;2023-02-28T08:30:02;9.75;;;6.25;;
21639;SDS011;10981;45.462;10.974;2023-02-28T08:32:31;9.32;;;6.40;;
21639;SDS011;10981;45.462;10.974;2023-02-28T08:35:00;10.85;;;6.35;;
21639;SDS011;10981;45.462;10.974;2023-02-28T08:37:29;8.93;;;6.40;;
21639;SDS011;10981;45.462;10.974;2023-02-28T08:39:57;11.70;;;6.80;;
21639;SDS011;10981;45.462;10.974;2023-02-28T08:42:25;14.07;;;6.13;;
21639;SDS011;10981;45.462;10.974;2023-02-28T08:44:53;10.88;;;6.85;;
21639;SDS011;10981;45.462;10.974;2023-02-28T08:47:21;12.93;;;6.68;;
21639;SDS011;10981;45.462;10.974;2023-02-28T08:49:49;9.30;;;6.38;;
21639;SDS011;10981;45.462;10.974;2023-02-28T08:52:16;11.65;;;6.65;;
21639;SDS011;10981;45.462;10.974;2023-02-28T08:54:44;9.35;;;6.25;;
21639;SDS011;10981;45.462;10.974;2023-02-28T08:57:12;11.88;;;5.63;;
21639;SDS011;10981;45.462;10.974;2023-02-28T08:59:40;9.15;;;6.20;;
21639;SDS011;10981;45.462;10.974;2023-02-28T09:02:08;9.45;;;6.53;;
21639;SDS011;10981;45.462;10.974;2023-02-28T09:04:36;17.55;;;6.88;;
21639;SDS011;10981;45.462;10.974;2023-02-28T09:07:04;10.77;;;6.28;;
21639;SDS011;10981;45.462;10.974;2023-02-28T09:09:32;10.35;;;6.32;;
21639;SDS011;10981;45.462;10.974;2023-02-28T09:12:00;10.10;;;6.47;;
21639;SDS011;10981;45.462;10.974;2023-02-28T09:14:29;9.90;;;6.50;;
21639;SDS011;10981;45.462;10.974;2023-02-28T09:16:56;12.27;;;8.65;;
21639;SDS011;10981;45.462;10.974;2023-02-28T09:19:25;11.27;;;6.50;;
21639;SDS011;10981;45.462;10.974;2023-02-28T09:21:53;9.98;;;6.28;;
21639;SDS011;10981;45.462;10.974;2023-02-28T09:24:21;11.38;;;6.57;;
21639;SDS011;10981;45.462;10.974;2023-02-28T09:26:49;12.55;;;7.07;;
21639;SDS011;10981;45.462;10.974;2023-02-28T09:29:32;10.35;;;6.28;;
21639;SDS011;10981;45.462;10.974;2023-02-28T09:32:01;12.00;;;6.35;;
21639;SDS011;10981;45.462;10.974;2023-02-28T09:34:29;10.45;;;6.15;;
21639;SDS011;10981;45.462;10.974;2023-02-28T09:36:57;12.55;;;6.35;;
21639;SDS011;10981;45.462;10.974;2023-02-28T09:39:25;10.68;;;6.38;;
21639;SDS011;10981;45.462;10.974;2023-02-28T09:41:54;10.90;;;5.63;;
21639;SDS011;10981;45.462;10.974;2023-02-28T09:46:51;8.50;;;5.80;;
21639;SDS011;10981;45.462;10.974;2023-02-28T09:49:22;10.27;;;5.30;;
21639;SDS011;10981;45.462;10.974;2023-02-28T09:51:55;9.32;;;6.03;;
21639;SDS011;10981;45.462;10.974;2023-02-28T09:54:24;7.78;;;5.75;;
21639;SDS011;10981;45.462;10.974;2023-02-28T09:57:04;10.05;;;6.32;;
21639;SDS011;10981;45.462;10.974;2023-02-28T10:02:21;10.30;;;6.82;;
21639;SDS011;10981;45.462;10.974;2023-02-28T10:04:57;12.65;;;6.80;;
21639;SDS011;10981;45.462;10.974;2023-02-28T10:10:11;9.25;;;6.28;;
21639;SDS011;10981;45.462;10.974;2023-02-28T10:12:43;10.30;;;6.95;;
21639;SDS011;10981;45.462;10.974;2023-02-28T10:15:15;9.43;;;5.60;;
21639;SDS011;10981;45.462;10.974;2023-02-28T10:17:45;13.63;;;6.33;;
21639;SDS011;10981;45.462;10.974;2023-02-28T10:20:21;8.80;;;5.97;;
21639;SDS011;10981;45.462;10.974;2023-02-28T10:25:44;10.02;;;5.72;;
21639;SDS011;10981;45.462;10.974;2023-02-28T10:28:15;8.27;;;5.68;;
21639;SDS011;10981;45.462;10.974;2023-02-28T10:30:49;11.25;;;6.15;;
21639;SDS011;10981;45.462;10.974;2023-02-28T10:35:45;9.80;;;6.45;;
21639;SDS011;10981;45.462;10.974;2023-02-28T10:38:15;12.13;;;5.75;;
21639;SDS011;10981;45.462;10.974;2023-02-28T10:40:43;8.30;;;5.60;;
21639;SDS011;10981;45.462;10.974;2023-02-28T10:45:53;11.60;;;7.20;;
21639;SDS011;10981;45.462;10.974;2023-02-28T10:55:58;13.88;;;6.95;;
21639;SDS011;10981;45.462;10.974;2023-02-28T10:59:22;16.40;;;7.35;;
21639;SDS011;10981;45.462;10.974;2023-02-28T11:01:16;18.63;;;7.28;;
21639;SDS011;10981;45.462;10.974;2023-02-28T11:03:45;13.88;;;7.07;;
21639;SDS011;10981;45.462;10.974;2023-02-28T11:06:17;12.32;;;7.07;;
21639;SDS011;10981;45.462;10.974;2023-02-28T11:11:16;10.45;;;7.43;;
21639;SDS011;10981;45.462;10.974;2023-02-28T11:13:45;12.00;;;7.20;;
21639;SDS011;10981;45.462;10.974;2023-02-28T11:16:14;13.55;;;7.85;;
21639;SDS011;10981;45.462;10.974;2023-02-28T11:21:18;12.18;;;7.32;;
21639;SDS011;10981;45.462;10.974;2023-02-28T11:23:47;12.93;;;7.38;;
21639;SDS011;10981;45.462;10.974;2023-02-28T11:26:16;14.38;;;7.60;;
21639;SDS011;10981;45.462;10.974;2023-02-28T11:29:03;13.00;;;7.43;;
21639;SDS011;10981;45.462;10.974;2023-02-28T11:31:31;12.27;;;7.45;;
21639;SDS011;10981;45.462;10.974;2023-02-28T11:33:59;11.07;;;7.35;;
21639;SDS011;10981;45.462;10.974;2023-02-28T11:36:28;14.48;;;7.85;;
21639;SDS011;10981;45.462;10.974;2023-02-28T11:39:00;11.13;;;7.28;;
21639;SDS011;10981;45.462;10.974;2023-02-28T11:44:23;9.77;;;7.22;;
21639;SDS011;10981;45.462;10.974;2023-02-28T11:46:49;11.88;;;6.45;;
21639;SDS011;10981;45.462;10.974;2023-02-28T11:55:12;11.90;;;7.40;;
21639;SDS011;10981;45.462;10.974;2023-02-28T11:57:32;11.00;;;7.10;;
21639;SDS011;10981;45.462;10.974;2023-02-28T12:00:06;10.43;;;7.30;;
21639;SDS011;10981;45.462;10.974;2023-02-28T12:05:17;10.82;;;7.45;;
21639;SDS011;10981;45.462;10.974;2023-02-28T12:07:55;10.80;;;7.32;;
21639;SDS011;10981;45.462;10.974;2023-02-28T12:10:28;11.55;;;7.53;;
21639;SDS011;10981;45.462;10.974;2023-02-28T12:26:45;11.48;;;7.53;;
21639;SDS011;10981;45.462;10.974;2023-02-28T12:31:44;10.10;;;7.60;;
21639;SDS011;10981;45.462;10.974;2023-02-28T12:34:13;12.25;;;7.30;;
21639;SDS011;10981;45.462;10.974;2023-02-28T12:36:42;14.55;;;8.55;;
21639;SDS011;10981;45.462;10.974;2023-02-28T12:39:23;11.95;;;8.05;;
21639;SDS011;10981;45.462;10.974;2023-02-28T12:41:57;12.18;;;7.93;;
21639;SDS011;10981;45.462;10.974;2023-02-28T12:46:59;13.50;;;8.70;;
21639;SDS011;10981;45.462;10.974;2023-02-28T12:49:30;9.10;;;7.35;;
21639;SDS011;10981;45.462;10.974;2023-02-28T12:51:59;12.05;;;7.75;;
21639;SDS011;10981;45.462;10.974;2023-02-28T12:57:22;11.73;;;8.43;;
21639;SDS011;10981;45.462;10.974;2023-02-28T13:02:57;13.15;;;8.60;;
21639;SDS011;10981;45.462;10.974;2023-02-28T13:10:44;16.00;;;9.38;;
21639;SDS011;10981;45.462;10.974;2023-02-28T13:13:16;12.57;;;8.25;;
21639;SDS011;10981;45.462;10.974;2023-02-28T13:18:37;14.35;;;8.77;;
21639;SDS011;10981;45.462;10.974;2023-02-28T13:21:09;16.25;;;8.98;;
21639;SDS011;10981;45.462;10.974;2023-02-28T13:27:10;13.30;;;8.82;;
21639;SDS011;10981;45.462;10.974;2023-02-28T13:34:33;15.55;;;9.13;;
21639;SDS011;10981;45.462;10.974;2023-02-28T13:45:34;13.43;;;9.27;;
21639;SDS011;10981;45.462;10.974;2023-02-28T13:47:51;16.67;;;9.27;;
21639;SDS011;10981;45.462;10.974;2023-02-28T13:55:35;14.98;;;9.57;;
21639;SDS011;10981;45.462;10.974;2023-02-28T13:58:10;14.63;;;10.00;;
21639;SDS011;10981;45.462;10.974;2023-02-28T14:08:51;15.90;;;8.95;;
21639;SDS011;10981;45.462;10.974;2023-02-28T14:11:25;12.50;;;8.45;;
21639;SDS011;10981;45.462;10.974;2023-02-28T14:13:53;12.55;;;9.20;;
21639;SDS011;10981;45.462;10.974;2023-02-28T14:16:21;16.35;;;9.63;;
21639;SDS011;10981;45.462;10.974;2023-02-28T14:18:51;16.05;;;9.27;;
21639;SDS011;10981;45.462;10.974;2023-02-28T14:24:07;14.35;;;8.80;;
21639;SDS011;10981;45.462;10.974;2023-02-28T14:27:40;13.50;;;8.68;;
21639;SDS011;10981;45.462;10.974;2023-02-28T14:34:52;14.45;;;9.77;;
21639;SDS011;10981;45.462;10.974;2023-02-28T14:37:28;15.82;;;8.50;;
21639;SDS011;10981;45.462;10.974;2023-02-28T14:39:57;14.20;;;8.52;;
21639;SDS011;10981;45.462;10.974;2023-02-28T14:42:33;14.00;;;9.00;;
21639;SDS011;10981;45.462;10.974;2023-02-28T14:45:01;14.73;;;8.85;;
21639;SDS011;10981;45.462;10.974;2023-02-28T14:47:33;15.75;;;9.13;;
21639;SDS011;10981;45.462;10.974;2023-02-28T14:50:03;13.57;;;8.88;;
21639;SDS011;10981;45.462;10.974;2023-02-28T14:52:32;14.75;;;8.82;;
21639;SDS011;10981;45.462;10.974;2023-02-28T14:57:31;15.13;;;8.75;;
21639;SDS011;10981;45.462;10.974;2023-02-28T15:00:01;13.82;;;8.63;;
21639;SDS011;10981;45.462;10.974;2023-02-28T15:02:33;14.13;;;7.88;;
21639;SDS011;10981;45.462;10.974;2023-02-28T15:05:10;13.02;;;8.45;;
21639;SDS011;10981;45.462;10.974;2023-02-28T15:07:44;14.88;;;8.45;;
21639;SDS011;10981;45.462;10.974;2023-02-28T15:10:25;14.25;;;9.10;;
21639;SDS011;10981;45.462;10.974;2023-02-28T15:12:57;18.80;;;9.77;;
21639;SDS011;10981;45.462;10.974;2023-02-28T15:15:30;14.68;;;9.63;;
21639;SDS011;10981;45.462;10.974;2023-02-28T15:18:18;14.52;;;8.50;;
21639;SDS011;10981;45.462;10.974;2023-02-28T15:20:49;12.57;;;8.02;;
21639;SDS011;10981;45.462;10.974;2023-02-28T15:23:17;14.55;;;8.95;;
21639;SDS011;10981;45.462;10.974;2023-02-28T15:25:46;12.18;;;7.65;;
21639;SDS011;10981;45.462;10.974;2023-02-28T15:28:15;16.90;;;9.02;;
21639;SDS011;10981;45.462;10.974;2023-02-28T15:30:55;18.67;;;9.30;;
21639;SDS011;10981;45.462;10.974;2023-02-28T15:33:24;14.15;;;8.57;;
21639;SDS011;10981;45.462;10.974;2023-02-28T15:36:09;14.40;;;9.13;;
21639;SDS011;10981;45.462;10.974;2023-02-28T15:38:42;16.02;;;8.80;;
21639;SDS011;10981;45.462;10.974;2023-02-28T15:41:21;18.80;;;8.85;;
21639;SDS011;10981;45.462;10.974;2023-02-28T15:43:49;15.57;;;8.70;;
21639;SDS011;10981;45.462;10.974;2023-02-28T15:46:37;12.48;;;8.23;;
21639;SDS011;10981;45.462;10.974;2023-02-28T15:49:12;16.60;;;8.43;;
21639;SDS011;10981;45.462;10.974;2023-02-28T15:51:44;15.23;;;7.75;;
21639;SDS011;10981;45.462;10.974;2023-02-28T15:54:12;17.27;;;9.07;;
21639;SDS011;10981;45.462;10.974;2023-02-28T15:56:46;15.43;;;9.07;;
21639;SDS011;10981;45.462;10.974;2023-02-28T15:59:18;16.77;;;9.20;;
21639;SDS011;10981;45.462;10.974;2023-02-28T16:01:47;17.70;;;9.40;;
21639;SDS011;10981;45.462;10.974;2023-02-28T16:04:29;15.18;;;8.48;;
21639;SDS011;10981;45.462;10.974;2023-02-28T16:09:26;15.43;;;9.07;;
21639;SDS011;10981;45.462;10.974;2023-02-28T16:11:54;18.45;;;9.45;;
21639;SDS011;10981;45.462;10.974;2023-02-28T16:14:24;18.50;;;9.45;;
21639;SDS011;10981;45.462;10.974;2023-02-28T16:17:03;16.65;;;9.55;;
21639;SDS011;10981;45.462;10.974;2023-02-28T16:19:32;16.23;;;8.15;;
21639;SDS011;10981;45.462;10.974;2023-02-28T16:22:00;14.43;;;8.77;;
21639;SDS011;10981;45.462;10.974;2023-02-28T16:24:28;15.32;;;8.13;;
21639;SDS011;10981;45.462;10.974;2023-02-28T16:26:56;12.75;;;8.13;;
21639;SDS011;10981;45.462;10.974;2023-02-28T16:29:25;14.63;;;8.73;;
21639;SDS011;10981;45.462;10.974;2023-02-28T16:31:55;13.15;;;8.23;;
21639;SDS011;10981;45.462;10.974;2023-02-28T16:34:23;13.82;;;8.82;;
21639;SDS011;10981;45.462;10.974;2023-02-28T16:36:52;16.00;;;8.98;;
21639;SDS011;10981;45.462;10.974;2023-02-28T16:39:20;15.50;;;8.57;;
21639;SDS011;10981;45.462;10.974;2023-02-28T16:41:48;15.57;;;9.38;;
21639;SDS011;10981;45.462;10.974;2023-02-28T16:44:27;17.10;;;9.50;;
21639;SDS011;10981;45.462;10.974;2023-02-28T16:46:55;19.35;;;8.90;;
21639;SDS011;10981;45.462;10.974;2023-02-28T16:49:23;17.05;;;9.13;;
21639;SDS011;10981;45.462;10.974;2023-02-28T16:51:51;17.60;;;9.10;;
21639;SDS011;10981;45.462;10.974;2023-02-28T16:54:19;17.23;;;8.98;;
21639;SDS011;10981;45.462;10.974;2023-02-28T16:56:48;19.05;;;9.18;;
21639;SDS011;10981;45.462;10.974;2023-02-28T16:59:18;16.45;;;8.43;;
21639;SDS011;10981;45.462;10.974;2023-02-28T17:01:46;22.08;;;9.05;;
21639;SDS011;10981;45.462;10.974;2023-02-28T17:04:15;15.68;;;8.32;;
21639;SDS011;10981;45.462;10.974;2023-02-28T17:06:43;15.60;;;8.85;;
21639;SDS011;10981;45.462;10.974;2023-02-28T17:09:14;14.32;;;8.75;;
21639;SDS011;10981;45.462;10.974;2023-02-28T17:11:43;22.02;;;8.35;;
21639;SDS011;10981;45.462;10.974;2023-02-28T17:14:11;17.05;;;8.63;;
21639;SDS011;10981;45.462;10.974;2023-02-28T17:16:39;15.68;;;8.73;;